KRHP

Details ICAO KRHP
Name ANDREWS MURPHY
Region United States
Timezone America/New_York (UTC-5.0)
Plans Departing 3
Arriving 3
Stats Elevation 1,697 ft / 517 m (AMSL)
Location 35.195230° -83.863038°
Runways 1
Magnetic Variation 5.708° W
Sunrise 2017-12-14 12:37:30 UTC / 2017-12-14 07:37:30 Local
Sunset 2017-12-14 22:25:47 UTC / 2017-12-14 17:25:47 Local
Advertisement - Login to hide

Runways

ID Width Length Bearing (true) Bearing (mag) Surface Threshold Offset Overrun Length
08 75 ft / 23 m 5,493 ft / 1,674 m 71.21° 76.92° Asphalt 0 ft / 0 m 0 ft / 0 m
26 75 ft / 23 m 5,493 ft / 1,674 m 251.22° 256.93° Asphalt 0 ft / 0 m 0 ft / 0 m

Map

Weather


0- 5 10 15 20 25 30 35+ Temperature / ° C

Clouds and Precipitation
Forecast for 2017-12-15 00:00 UTC. Updated 17 minutes ago

Ground ~20,000 ft ~40,000 ft Winds

METAR

KRHP 141920Z AUTO 23011KT 10SM CLR 11/M01 A2987 RMK AO2 T01061007

TAF

Not found

Frequencies

Recorded 119.67 MHz AWOS 3
Unicom 122.80 MHz CTAF/UNICOM
Warning: Do not use this data for real-world aviation or navigation. No guarantee of current accuracy is given.